Time;durP1;ratioP1;P1;durP2;ratioP2;P2;SDS_P1;SDS_P2;PMS_P1;PMS_P2;Temp;Humidity;BMP_temperature;BMP_pressure;BME280_temperature;BME280_humidity;BME280_pressure;Samples;Min_cycle;Max_cycle;Signal;HPM_P1;HPM_P2
2023/06/20 00:00:56;;;;;;;14.60;10.48;;;18.90;99.90;;;;;;4975546;28;20242;-83
2023/06/20 00:03:22;;;;;;;19.13;12.82;;;18.80;99.90;;;;;;4992088;28;20038;-83
2023/06/20 00:05:47;;;;;;;18.40;12.90;;;18.80;99.90;;;;;;5010165;28;20029;-84
2023/06/20 00:08:13;;;;;;;18.00;13.23;;;18.80;99.90;;;;;;4979753;28;20522;-84
2023/06/20 00:10:39;;;;;;;21.70;14.70;;;18.80;99.90;;;;;;5004957;28;20139;-83
2023/06/20 00:13:07;;;;;;;17.75;12.90;;;18.70;99.90;;;;;;5008730;28;20034;-83
2023/06/20 00:15:41;;;;;;;17.98;12.00;;;18.70;99.90;;;;;;4990593;28;20037;-84
2023/06/20 00:18:06;;;;;;;19.77;12.60;;;18.70;99.90;;;;;;4985515;28;20142;-83
2023/06/20 00:20:32;;;;;;;16.88;11.85;;;18.70;99.90;;;;;;5004358;28;20042;-84
2023/06/20 00:22:58;;;;;;;17.50;11.35;;;18.60;99.90;;;;;;4989562;28;20053;-84
2023/06/20 00:25:24;;;;;;;18.48;13.32;;;18.70;99.90;;;;;;4982943;28;20046;-84
2023/06/20 00:27:49;;;;;;;16.50;11.88;;;18.60;99.90;;;;;;5008684;28;20096;-84
2023/06/20 00:30:15;;;;;;;20.30;13.57;;;18.60;99.90;;;;;;5008207;28;20061;-83
2023/06/20 00:32:44;;;;;;;18.17;13.07;;;18.60;99.90;;;;;;4987049;28;20026;-84
2023/06/20 00:35:10;;;;;;;19.27;12.70;;;18.50;99.90;;;;;;4991321;28;20112;-84
2023/06/20 00:37:38;;;;;;;15.73;12.00;;;18.60;99.90;;;;;;5010156;28;20401;-84
2023/06/20 00:40:07;;;;;;;14.65;11.48;;;18.50;99.90;;;;;;5008746;28;20052;-84
2023/06/20 00:42:34;;;;;;;19.42;12.60;;;18.50;99.90;;;;;;4991464;28;20041;-84
2023/06/20 00:45:00;;;;;;;14.02;10.77;;;18.40;99.90;;;;;;4986008;28;20097;-83
2023/06/20 00:47:27;;;;;;;15.93;11.45;;;18.40;99.90;;;;;;5002250;28;20046;-84
2023/06/20 00:49:53;;;;;;;16.75;12.27;;;18.40;99.90;;;;;;4968194;28;20049;-83
2023/06/20 00:52:21;;;;;;;15.90;11.60;;;18.40;99.90;;;;;;4984539;28;20069;-83
2023/06/20 00:54:48;;;;;;;15.68;11.60;;;18.40;99.90;;;;;;4986533;28;20519;-83
2023/06/20 00:57:15;;;;;;;15.70;11.02;;;18.40;99.90;;;;;;5005591;28;20037;-83
2023/06/20 00:59:46;;;;;;;17.67;11.60;;;18.40;99.90;;;;;;4988929;28;20453;-83
2023/06/20 01:02:14;;;;;;;15.85;11.02;;;18.40;99.90;;;;;;5001790;28;20062;-83
2023/06/20 01:04:49;;;;;;;17.73;10.13;;;18.40;99.90;;;;;;4978087;28;20034;-82
2023/06/20 01:07:39;;;;;;;16.90;10.30;;;18.40;99.90;;;;;;4988854;28;20096;-82
2023/06/20 01:10:24;;;;;;;16.20;10.98;;;18.40;99.90;;;;;;4991123;28;20042;-83
2023/06/20 01:13:04;;;;;;;14.82;10.63;;;18.30;99.90;;;;;;4992529;28;20045;-83
2023/06/20 01:15:40;;;;;;;15.68;11.60;;;18.40;99.90;;;;;;4975518;28;20125;-83
2023/06/20 01:18:43;;;;;;;17.67;10.13;;;18.30;99.90;;;;;;5001263;28;20045;-83
2023/06/20 01:21:15;;;;;;;16.17;9.98;;;18.30;99.90;;;;;;4934859;28;20051;-83
2023/06/20 01:23:50;;;;;;;15.20;10.45;;;18.30;99.90;;;;;;4950541;28;20049;-84
2023/06/20 01:26:20;;;;;;;14.48;10.43;;;18.30;99.90;;;;;;4931443;29;20052;-84
2023/06/20 01:29:10;;;;;;;13.85;8.73;;;18.40;99.90;;;;;;4935488;29;20050;-83
2023/06/20 01:31:40;;;;;;;14.70;10.80;;;18.40;99.90;;;;;;4944120;28;20058;-83
2023/06/20 01:34:11;;;;;;;12.27;8.80;;;18.30;99.90;;;;;;4943486;28;20356;-84
2023/06/20 01:36:41;;;;;;;17.10;11.43;;;18.30;99.90;;;;;;4933522;28;20154;-84
2023/06/20 01:39:13;;;;;;;11.63;8.07;;;18.30;99.90;;;;;;4935151;28;20530;-85
2023/06/20 01:41:42;;;;;;;17.02;10.98;;;18.20;99.90;;;;;;4942850;28;20552;-84
2023/06/20 01:44:12;;;;;;;16.23;10.18;;;18.20;99.90;;;;;;4950542;28;20042;-83
2023/06/20 01:46:38;;;;;;;16.40;11.75;;;18.20;99.90;;;;;;4950953;28;20051;-83
2023/06/20 01:49:05;;;;;;;14.57;10.55;;;18.20;99.90;;;;;;4943264;28;20050;-84
2023/06/20 01:51:32;;;;;;;16.85;11.65;;;18.20;99.90;;;;;;4933645;28;20059;-84
2023/06/20 01:54:02;;;;;;;16.40;11.63;;;18.20;99.90;;;;;;4929175;29;20396;-84
2023/06/20 01:56:30;;;;;;;15.02;9.68;;;18.10;99.90;;;;;;4948171;28;20051;-83
2023/06/20 01:58:58;;;;;;;15.95;11.60;;;18.20;99.90;;;;;;4979882;28;20054;-84
2023/06/20 02:01:29;;;;;;;16.50;11.52;;;18.10;99.90;;;;;;4964569;28;20046;-83
2023/06/20 02:03:56;;;;;;;14.60;10.13;;;18.10;99.90;;;;;;4989582;28;20069;-84
2023/06/20 02:06:23;;;;;;;16.73;11.38;;;18.10;99.90;;;;;;4954682;28;20054;-84
2023/06/20 02:08:51;;;;;;;14.43;10.80;;;18.10;99.90;;;;;;4990578;28;20096;-84
2023/06/20 02:11:18;;;;;;;18.92;12.02;;;18.10;99.90;;;;;;4986957;28;20042;-84
2023/06/20 02:13:47;;;;;;;18.50;11.80;;;18.10;99.90;;;;;;4972263;28;20449;-84
2023/06/20 02:16:14;;;;;;;13.95;10.57;;;18.10;99.90;;;;;;4989529;28;20117;-84
2023/06/20 02:18:40;;;;;;;13.70;10.23;;;18.00;99.90;;;;;;4990716;28;20504;-84
2023/06/20 02:21:10;;;;;;;17.40;12.02;;;18.00;99.90;;;;;;4972327;28;20284;-84
2023/06/20 02:23:39;;;;;;;15.23;10.95;;;18.00;99.90;;;;;;4956051;28;20038;-84
2023/06/20 02:26:08;;;;;;;18.88;13.65;;;18.00;99.90;;;;;;4971895;28;20042;-84
2023/06/20 02:28:42;;;;;;;16.05;10.98;;;18.00;99.90;;;;;;4973770;28;20042;-83
2023/06/20 02:31:13;;;;;;;17.27;13.43;;;18.00;99.90;;;;;;4985234;28;20038;-83
2023/06/20 02:33:41;;;;;;;18.45;12.80;;;18.00;99.90;;;;;;4979295;28;20046;-83
2023/06/20 02:36:12;;;;;;;18.95;12.90;;;17.90;99.90;;;;;;4971835;28;20109;-83
2023/06/20 02:38:38;;;;;;;18.85;13.52;;;18.00;99.90;;;;;;4968441;28;20073;-83
2023/06/20 02:41:05;;;;;;;17.63;13.13;;;18.00;99.90;;;;;;4963190;28;20121;-82
2023/06/20 02:43:31;;;;;;;18.65;12.40;;;17.90;99.90;;;;;;4984786;28;20035;-83
2023/06/20 02:46:20;;;;;;;24.00;15.07;;;18.00;99.90;;;;;;4979594;28;20078;-83
2023/06/20 02:49:13;;;;;;;20.92;14.85;;;17.90;99.90;;;;;;4993783;28;20069;-84
2023/06/20 02:52:02;;;;;;;19.08;13.15;;;18.00;99.90;;;;;;5012230;28;20042;-83
2023/06/20 02:54:53;;;;;;;21.02;15.35;;;18.00;99.90;;;;;;4989958;28;20374;-83
2023/06/20 02:57:21;;;;;;;18.40;13.18;;;18.00;99.90;;;;;;4967823;28;20061;-83
2023/06/20 02:59:54;;;;;;;19.05;15.05;;;17.90;99.90;;;;;;4999901;28;20811;-84
2023/06/20 03:02:22;;;;;;;21.88;15.18;;;17.90;99.90;;;;;;4991839;28;20725;-83
2023/06/20 03:04:57;;;;;;;19.88;14.18;;;17.90;99.90;;;;;;4987699;28;20046;-83
2023/06/20 03:07:26;;;;;;;19.55;14.35;;;17.90;99.90;;;;;;4985203;28;20049;-84
2023/06/20 03:09:54;;;;;;;24.42;14.75;;;17.90;99.90;;;;;;4997297;28;20056;-83
2023/06/20 03:12:20;;;;;;;23.50;16.70;;;17.90;99.90;;;;;;5007647;28;20662;-83
2023/06/20 03:14:46;;;;;;;21.67;15.43;;;17.90;99.90;;;;;;5004379;28;20076;-83
2023/06/20 03:17:13;;;;;;;20.27;15.50;;;17.90;99.90;;;;;;4987886;28;20078;-83
2023/06/20 03:19:39;;;;;;;24.67;16.48;;;17.90;99.90;;;;;;5004268;28;20034;-84
2023/06/20 03:22:05;;;;;;;24.85;16.20;;;17.90;99.90;;;;;;5006084;28;20044;-83
2023/06/20 03:24:30;;;;;;;20.65;14.75;;;17.90;99.90;;;;;;5002696;28;20042;-84
2023/06/20 03:26:56;;;;;;;22.38;16.33;;;17.90;99.90;;;;;;4989945;28;20041;-83
2023/06/20 03:29:22;;;;;;;18.95;15.00;;;17.90;99.90;;;;;;4988191;28;20054;-83
2023/06/20 03:31:50;;;;;;;24.98;17.33;;;17.90;99.90;;;;;;5004514;28;20038;-83
2023/06/20 03:34:16;;;;;;;26.65;18.25;;;17.90;99.90;;;;;;5004974;28;20044;-83
2023/06/20 03:36:41;;;;;;;23.17;17.38;;;17.90;99.90;;;;;;5003229;28;20134;-83
2023/06/20 03:39:07;;;;;;;21.92;15.82;;;17.90;99.90;;;;;;5006661;28;20048;-83
2023/06/20 03:41:33;;;;;;;25.67;18.10;;;17.90;99.90;;;;;;4972877;28;20041;-84
2023/06/20 03:43:58;;;;;;;23.88;17.38;;;17.90;99.90;;;;;;5003952;28;20046;-83
2023/06/20 03:46:24;;;;;;;21.08;14.63;;;17.90;99.90;;;;;;4990724;28;20057;-83
2023/06/20 03:48:50;;;;;;;20.25;15.93;;;17.90;99.90;;;;;;5008811;28;20038;-84
2023/06/20 03:51:15;;;;;;;22.65;14.98;;;17.90;99.90;;;;;;5009534;28;20104;-83
2023/06/20 03:53:41;;;;;;;21.67;16.60;;;17.90;99.90;;;;;;4990890;28;20058;-83
2023/06/20 03:56:07;;;;;;;22.30;16.52;;;17.90;99.90;;;;;;4986794;28;20102;-83
2023/06/20 03:58:33;;;;;;;24.67;17.20;;;17.90;99.90;;;;;;4994429;28;20049;-83
2023/06/20 04:00:58;;;;;;;22.75;14.93;;;17.90;99.90;;;;;;4986182;28;20042;-83
2023/06/20 04:03:24;;;;;;;23.45;17.80;;;17.90;99.90;;;;;;4989776;28;20440;-83
2023/06/20 04:05:51;;;;;;;20.45;15.65;;;17.90;99.90;;;;;;4988071;28;20026;-83
2023/06/20 04:08:17;;;;;;;21.23;15.45;;;18.00;99.90;;;;;;4987487;28;20042;-83
2023/06/20 04:10:42;;;;;;;19.27;13.95;;;18.00;99.90;;;;;;4985792;28;20108;-82
2023/06/20 04:13:11;;;;;;;19.27;14.45;;;18.00;99.90;;;;;;5007959;28;20037;-82
2023/06/20 04:15:36;;;;;;;22.65;15.90;;;18.00;99.90;;;;;;5005724;28;20034;-83
2023/06/20 04:18:02;;;;;;;22.20;15.95;;;18.00;99.90;;;;;;4973808;28;20413;-83
2023/06/20 04:20:28;;;;;;;17.83;13.32;;;18.00;99.90;;;;;;5006230;28;20044;-83
2023/06/20 04:22:53;;;;;;;21.42;15.45;;;18.00;99.90;;;;;;4971806;28;20506;-82
2023/06/20 04:25:19;;;;;;;21.80;15.00;;;18.00;99.90;;;;;;5001456;28;20080;-83
2023/06/20 04:27:53;;;;;;;18.85;13.98;;;18.00;99.90;;;;;;5004172;28;20038;-83
2023/06/20 04:30:19;;;;;;;19.15;14.77;;;18.00;99.90;;;;;;5008149;28;20121;-83
2023/06/20 04:32:45;;;;;;;20.67;14.23;;;18.00;99.90;;;;;;4998992;28;20125;-83
2023/06/20 04:35:11;;;;;;;19.48;13.35;;;18.00;99.90;;;;;;4981751;28;20045;-83
2023/06/20 04:37:38;;;;;;;19.58;15.27;;;18.10;99.90;;;;;;5004694;28;20033;-82
2023/06/20 04:40:06;;;;;;;18.85;14.23;;;18.10;99.90;;;;;;5008841;28;20179;-83
2023/06/20 04:42:31;;;;;;;15.25;11.95;;;18.10;99.90;;;;;;5006422;28;20042;-83
2023/06/20 04:44:57;;;;;;;18.23;13.93;;;18.10;99.90;;;;;;5008822;28;20121;-83
2023/06/20 04:47:23;;;;;;;17.27;14.13;;;18.20;99.90;;;;;;4986951;28;20404;-83
2023/06/20 04:49:48;;;;;;;16.63;11.75;;;18.20;99.90;;;;;;5008254;28;20045;-82
2023/06/20 04:52:14;;;;;;;17.13;11.93;;;18.20;99.90;;;;;;4992488;28;20525;-83
2023/06/20 04:54:40;;;;;;;15.85;12.60;;;18.30;99.90;;;;;;4974861;28;20536;-86
2023/06/20 04:57:06;;;;;;;16.67;12.35;;;18.30;99.90;;;;;;4993450;28;20044;-84
2023/06/20 04:59:31;;;;;;;16.05;11.13;;;18.30;99.90;;;;;;5012649;28;20050;-84
2023/06/20 05:01:57;;;;;;;18.20;12.32;;;18.30;99.90;;;;;;4988629;28;20124;-85
2023/06/20 05:04:23;;;;;;;14.85;11.95;;;18.50;99.90;;;;;;4977304;28;20046;-82
2023/06/20 05:06:49;;;;;;;15.45;11.38;;;18.40;99.90;;;;;;5010227;28;20033;-84
2023/06/20 05:09:14;;;;;;;15.30;11.13;;;18.40;99.90;;;;;;4990667;28;20069;-84
2023/06/20 05:11:40;;;;;;;15.27;11.52;;;18.50;99.90;;;;;;4990147;28;20041;-84
2023/06/20 05:14:06;;;;;;;18.65;13.07;;;18.50;99.90;;;;;;4992060;28;20084;-83
2023/06/20 05:16:32;;;;;;;16.70;11.40;;;18.50;99.90;;;;;;4985667;28;20034;-83
2023/06/20 05:18:58;;;;;;;13.20;10.23;;;18.60;99.90;;;;;;4983435;28;20054;-83
2023/06/20 05:21:23;;;;;;;16.65;12.82;;;18.60;99.90;;;;;;4987076;28;20042;-84
2023/06/20 05:23:49;;;;;;;17.77;12.80;;;18.60;99.90;;;;;;5003780;28;20034;-84
2023/06/20 05:26:15;;;;;;;16.27;12.45;;;18.70;99.90;;;;;;5006029;28;20370;-84
2023/06/20 05:28:40;;;;;;;17.63;11.50;;;18.60;99.90;;;;;;5012416;28;20050;-84
2023/06/20 05:31:10;;;;;;;16.52;12.45;;;18.70;99.90;;;;;;4991743;28;20046;-82
2023/06/20 05:33:36;;;;;;;15.80;11.52;;;18.70;99.90;;;;;;4992034;28;20057;-81
2023/06/20 05:36:01;;;;;;;22.50;14.52;;;18.70;99.90;;;;;;5008624;28;20480;-85
2023/06/20 05:38:31;;;;;;;18.73;11.07;;;18.70;99.90;;;;;;4992430;28;20037;-81
2023/06/20 05:40:58;;;;;;;17.45;12.40;;;18.70;99.90;;;;;;5009733;28;20500;-81
2023/06/20 05:43:24;;;;;;;14.73;11.50;;;18.80;99.90;;;;;;5010199;28;20056;-81
2023/06/20 05:45:49;;;;;;;16.33;10.88;;;18.80;99.90;;;;;;5005436;28;20054;-81
2023/06/20 05:48:15;;;;;;;16.17;11.80;;;18.80;99.90;;;;;;5005312;28;20057;-81
2023/06/20 05:50:41;;;;;;;15.10;10.55;;;18.90;99.90;;;;;;5010649;28;20040;-83
2023/06/20 05:53:07;;;;;;;15.20;11.88;;;18.90;99.90;;;;;;4989291;28;20053;-82
2023/06/20 05:55:33;;;;;;;17.65;12.40;;;19.00;99.90;;;;;;5009198;28;20049;-81
2023/06/20 05:57:59;;;;;;;13.20;9.57;;;19.00;99.90;;;;;;4990836;28;20037;-83
2023/06/20 06:00:25;;;;;;;19.90;12.85;;;19.10;99.90;;;;;;4971544;28;20400;-84
2023/06/20 06:02:51;;;;;;;16.92;12.68;;;19.20;99.90;;;;;;5001455;28;21198;-83
2023/06/20 06:05:17;;;;;;;21.40;13.05;;;19.20;99.90;;;;;;5006743;28;20041;-83
2023/06/20 06:07:43;;;;;;;17.17;12.20;;;19.20;99.90;;;;;;5006554;28;20044;-84
2023/06/20 06:10:09;;;;;;;19.20;12.98;;;19.20;99.90;;;;;;5017397;28;20049;-84
2023/06/20 06:12:36;;;;;;;17.30;13.70;;;19.30;99.90;;;;;;5006923;28;20038;-85
2023/06/20 06:15:03;;;;;;;21.17;13.65;;;19.30;99.90;;;;;;4998148;28;20176;-85
2023/06/20 06:17:30;;;;;;;17.40;12.48;;;19.40;99.90;;;;;;5001140;28;20109;-87
2023/06/20 06:19:56;;;;;;;19.92;12.40;;;19.40;99.90;;;;;;5009721;28;21583;-85
2023/06/20 06:22:22;;;;;;;19.73;12.48;;;19.40;99.90;;;;;;4993250;28;20156;-84
2023/06/20 06:24:48;;;;;;;16.80;11.75;;;19.50;99.90;;;;;;5005048;28;20155;-83
2023/06/20 06:27:13;;;;;;;16.23;12.13;;;19.50;99.90;;;;;;4984374;28;20041;-84
2023/06/20 06:29:39;;;;;;;19.20;11.95;;;19.60;99.90;;;;;;5011624;28;20472;-84
2023/06/20 06:32:07;;;;;;;18.02;13.80;;;19.60;99.90;;;;;;5010213;28;20260;-85
2023/06/20 06:34:33;;;;;;;15.02;11.65;;;19.80;99.90;;;;;;5015050;28;20041;-84
2023/06/20 06:37:00;;;;;;;14.00;11.70;;;19.90;99.90;;;;;;4991652;28;20120;-83
2023/06/20 06:39:26;;;;;;;18.50;12.55;;;19.90;99.90;;;;;;5005770;28;20046;-84
2023/06/20 06:41:52;;;;;;;17.80;12.02;;;20.10;99.90;;;;;;4989325;28;20034;-83
2023/06/20 06:44:19;;;;;;;16.52;12.95;;;20.10;99.90;;;;;;4991624;28;20037;-91
2023/06/20 06:46:45;;;;;;;16.83;12.52;;;20.20;99.90;;;;;;5023019;23;20129;-89
2023/06/20 06:49:10;;;;;;;17.10;12.20;;;20.30;99.90;;;;;;4986887;28;20049;-88
2023/06/20 06:51:38;;;;;;;17.38;12.60;;;20.40;99.90;;;;;;4972353;28;20046;-89
2023/06/20 06:54:04;;;;;;;15.70;11.82;;;20.50;99.90;;;;;;4984808;28;20046;-89
2023/06/20 06:56:30;;;;;;;17.65;11.85;;;20.50;99.90;;;;;;5001261;28;20043;-90
2023/06/20 06:58:57;;;;;;;13.43;11.25;;;20.60;99.90;;;;;;4977287;28;20123;-89
2023/06/20 07:01:24;;;;;;;17.73;11.63;;;20.70;99.90;;;;;;4966252;28;20046;-89
2023/06/20 07:03:49;;;;;;;14.90;12.13;;;20.80;99.90;;;;;;4979974;28;20100;-90
2023/06/20 07:06:15;;;;;;;17.77;12.35;;;20.90;99.90;;;;;;5001484;28;20042;-89
2023/06/20 07:08:41;;;;;;;16.27;11.43;;;21.00;99.90;;;;;;4968888;28;20498;-89
2023/06/20 07:11:06;;;;;;;17.50;11.82;;;21.10;99.90;;;;;;4990050;28;20541;-90
2023/06/20 07:13:32;;;;;;;14.18;10.70;;;21.10;99.90;;;;;;4997883;28;20077;-89
2023/06/20 07:15:58;;;;;;;15.90;11.23;;;21.20;99.90;;;;;;4998421;28;20066;-90
2023/06/20 07:18:23;;;;;;;17.27;11.85;;;21.20;99.90;;;;;;4977566;28;20355;-89
2023/06/20 07:20:49;;;;;;;16.75;11.07;;;21.30;99.90;;;;;;4993466;28;20045;-89
2023/06/20 07:23:14;;;;;;;15.93;11.63;;;21.30;99.90;;;;;;4965178;28;20043;-90
2023/06/20 07:25:40;;;;;;;14.55;11.40;;;21.30;99.90;;;;;;4962764;28;20040;-89
2023/06/20 07:28:06;;;;;;;14.40;11.73;;;21.40;99.90;;;;;;4979495;28;20054;-90
2023/06/20 07:30:32;;;;;;;15.38;11.15;;;21.40;99.90;;;;;;4995402;28;20276;-90
2023/06/20 07:32:58;;;;;;;14.82;11.65;;;21.40;99.90;;;;;;4980542;28;20105;-90
2023/06/20 07:35:23;;;;;;;13.30;10.88;;;21.40;99.90;;;;;;4979799;28;20038;-89
2023/06/20 07:37:49;;;;;;;16.45;10.93;;;21.40;99.90;;;;;;5002844;28;20077;-89
2023/06/20 07:40:15;;;;;;;20.73;11.35;;;21.50;99.90;;;;;;4979387;28;20034;-90
2023/06/20 07:42:40;;;;;;;13.75;9.82;;;21.60;99.90;;;;;;4978398;28;20046;-89
2023/06/20 07:45:07;;;;;;;13.43;10.88;;;21.60;99.90;;;;;;5001229;28;20508;-90
2023/06/20 07:47:32;;;;;;;16.13;11.27;;;21.80;99.90;;;;;;4979911;28;20077;-90
2023/06/20 07:49:58;;;;;;;13.30;10.75;;;21.90;99.90;;;;;;4996487;28;20101;-90
2023/06/20 07:52:24;;;;;;;16.17;11.52;;;22.00;99.90;;;;;;4988394;28;20049;-90
2023/06/20 07:54:50;;;;;;;13.65;10.38;;;22.10;99.90;;;;;;4976084;28;20064;-90
2023/06/20 07:57:15;;;;;;;14.23;10.63;;;22.20;99.90;;;;;;4999002;28;20100;-90
2023/06/20 07:59:41;;;;;;;14.95;11.38;;;22.20;99.90;;;;;;4978881;28;20078;-90
2023/06/20 08:02:06;;;;;;;16.30;11.63;;;22.30;99.90;;;;;;4995226;28;20497;-90
2023/06/20 08:04:32;;;;;;;14.52;10.48;;;22.20;99.90;;;;;;4983997;28;20053;-90
2023/06/20 08:06:58;;;;;;;17.98;11.48;;;22.20;99.90;;;;;;4996390;28;20500;-90
2023/06/20 08:09:23;;;;;;;14.75;11.05;;;22.20;99.90;;;;;;4984400;28;20038;-90
2023/06/20 08:11:49;;;;;;;13.57;10.30;;;22.10;99.90;;;;;;4993775;28;20367;-90
2023/06/20 08:14:16;;;;;;;14.85;11.38;;;22.10;99.90;;;;;;4985283;28;20543;-90
2023/06/20 08:16:42;;;;;;;13.18;10.23;;;22.00;99.90;;;;;;5005180;28;20117;-90
2023/06/20 08:19:08;;;;;;;15.57;12.25;;;22.00;99.90;;;;;;5007416;28;20133;-90
2023/06/20 08:21:33;;;;;;;16.15;10.98;;;22.00;99.90;;;;;;4983949;28;20060;-90
2023/06/20 08:23:59;;;;;;;13.15;10.60;;;22.00;99.90;;;;;;4998732;28;20041;-89
2023/06/20 08:26:24;;;;;;;15.07;11.07;;;22.00;99.90;;;;;;4966911;28;20042;-90
2023/06/20 08:28:50;;;;;;;29.90;14.15;;;21.90;99.90;;;;;;5002539;28;20038;-90
2023/06/20 08:31:16;;;;;;;14.57;11.02;;;22.00;99.90;;;;;;4988676;28;20050;-90
2023/06/20 08:33:41;;;;;;;13.13;10.75;;;22.00;99.90;;;;;;4987220;28;20057;-90
2023/06/20 08:36:10;;;;;;;14.85;11.30;;;22.00;99.90;;;;;;4968407;28;20389;-90
2023/06/20 08:38:36;;;;;;;18.10;10.80;;;22.00;99.90;;;;;;4980687;28;20066;-90
2023/06/20 08:41:03;;;;;;;12.05;10.60;;;22.10;99.90;;;;;;4987190;28;20152;-90
2023/06/20 08:43:30;;;;;;;14.02;10.68;;;22.10;99.90;;;;;;4984154;28;20065;-90
2023/06/20 08:45:55;;;;;;;14.43;10.98;;;22.20;99.90;;;;;;4983759;28;20126;-90
2023/06/20 08:48:23;;;;;;;15.65;10.75;;;22.20;99.90;;;;;;4985810;28;20077;-90
2023/06/20 08:50:49;;;;;;;14.68;11.02;;;22.30;99.90;;;;;;4998074;28;20042;-90
2023/06/20 08:53:16;;;;;;;14.25;10.35;;;22.40;99.90;;;;;;4980573;28;20038;-90
2023/06/20 08:55:43;;;;;;;15.90;10.90;;;22.40;99.90;;;;;;4979530;28;21216;-90
2023/06/20 08:58:09;;;;;;;14.63;11.20;;;22.50;99.90;;;;;;4987767;28;20049;-90
2023/06/20 09:00:36;;;;;;;15.25;11.40;;;22.40;99.90;;;;;;4970269;28;20043;-90
2023/06/20 09:03:01;;;;;;;14.00;10.27;;;22.60;99.90;;;;;;5003944;28;20042;-90
2023/06/20 09:05:31;;;;;;;12.05;10.20;;;22.70;99.90;;;;;;4991792;28;20046;-90
2023/06/20 09:07:57;;;;;;;17.40;11.00;;;22.80;99.90;;;;;;4979849;28;20066;-90
2023/06/20 09:10:24;;;;;;;20.02;11.00;;;22.80;99.90;;;;;;4981352;28;20124;-90
2023/06/20 09:12:59;;;;;;;12.90;9.68;;;23.00;99.90;;;;;;4980172;28;20057;-90
2023/06/20 09:15:26;;;;;;;14.48;10.05;;;23.00;99.90;;;;;;5005569;28;20041;-90
2023/06/20 09:17:58;;;;;;;11.93;9.68;;;23.20;99.90;;;;;;4997807;28;20190;-91
2023/06/20 09:20:31;;;;;;;13.52;10.13;;;23.20;99.90;;;;;;4980907;28;20091;-90
2023/06/20 09:22:57;;;;;;;11.02;9.63;;;23.30;99.90;;;;;;4984089;28;20141;-90
2023/06/20 09:25:28;;;;;;;13.27;10.02;;;23.30;99.90;;;;;;4982762;28;20054;-90
2023/06/20 09:27:55;;;;;;;14.65;9.57;;;23.40;99.90;;;;;;5003744;28;20048;-90
2023/06/20 09:30:21;;;;;;;12.07;9.10;;;23.50;99.90;;;;;;4996835;28;20135;-90
2023/06/20 09:32:47;;;;;;;10.40;8.35;;;23.70;99.90;;;;;;4985694;28;20073;-90
2023/06/20 09:35:16;;;;;;;10.10;7.68;;;23.70;99.90;;;;;;5000600;28;20486;-91
2023/06/20 09:37:43;;;;;;;9.23;7.57;;;23.80;99.90;;;;;;4990020;28;20045;-91
2023/06/20 09:40:13;;;;;;;9.07;7.13;;;23.90;99.90;;;;;;4992302;28;20042;-90
2023/06/20 09:42:40;;;;;;;8.65;6.63;;;24.10;99.90;;;;;;4985764;28;20054;-91
2023/06/20 09:45:10;;;;;;;7.93;6.63;;;24.20;99.90;;;;;;4994023;28;20044;-91
2023/06/20 09:47:38;;;;;;;9.07;6.03;;;24.30;99.90;;;;;;4998310;28;20065;-91
2023/06/20 09:50:09;;;;;;;8.10;5.75;;;24.40;99.90;;;;;;4978916;28;20509;-91
2023/06/20 09:52:43;;;;;;;9.88;7.03;;;24.50;99.90;;;;;;4970826;28;20452;-91
2023/06/20 09:55:14;;;;;;;9.38;6.80;;;24.70;99.90;;;;;;4999342;28;20056;-91
2023/06/20 09:57:42;;;;;;;9.32;7.18;;;24.70;99.90;;;;;;5002168;28;20034;-91
2023/06/20 10:00:14;;;;;;;10.23;7.07;;;24.80;99.90;;;;;;4983418;28;20038;-92
2023/06/20 10:02:43;;;;;;;10.43;7.45;;;24.90;99.90;;;;;;4984379;28;20042;-91
2023/06/20 10:05:09;;;;;;;11.00;8.40;;;25.00;99.90;;;;;;4980223;28;20034;-91
2023/06/20 10:07:37;;;;;;;10.15;7.80;;;25.10;99.90;;;;;;4979892;28;20398;-91
2023/06/20 10:10:03;;;;;;;10.80;8.82;;;25.30;99.90;;;;;;4981948;28;20074;-91
2023/06/20 10:12:31;;;;;;;11.50;7.68;;;25.50;99.90;;;;;;4983473;28;20044;-91
2023/06/20 10:14:56;;;;;;;10.98;8.18;;;25.60;99.90;;;;;;4987841;28;20038;-91
2023/06/20 10:17:35;;;;;;;10.15;8.55;;;25.70;99.90;;;;;;4998874;28;20112;-91
2023/06/20 10:20:01;;;;;;;16.15;8.82;;;25.80;99.90;;;;;;4998545;28;20042;-91
2023/06/20 10:22:43;;;;;;;13.80;8.55;;;26.00;99.90;;;;;;4999987;28;20038;-90
2023/06/20 10:25:14;;;;;;;10.10;7.65;;;26.10;99.90;;;;;;4995585;28;20540;-91
2023/06/20 10:27:43;;;;;;;11.38;8.07;;;26.30;99.90;;;;;;4999889;28;20101;-91
2023/06/20 10:30:12;;;;;;;10.90;7.93;;;26.40;99.90;;;;;;4978291;28;20100;-91
2023/06/20 10:33:05;;;;;;;9.88;8.82;;;26.50;99.90;;;;;;4983997;28;20158;-90
2023/06/20 10:35:31;;;;;;;8.43;6.78;;;26.50;99.90;;;;;;4989594;28;20033;-91
2023/06/20 10:38:07;;;;;;;11.13;6.68;;;26.60;99.90;;;;;;4983385;28;20075;-92
2023/06/20 10:40:35;;;;;;;10.23;7.28;;;26.70;99.90;;;;;;4984528;28;20086;-91
2023/06/20 10:43:14;;;;;;;9.35;6.75;;;26.70;99.90;;;;;;4970372;28;20042;-91
2023/06/20 10:45:59;;;;;;;11.95;7.80;;;26.80;99.90;;;;;;4988956;28;20045;-91
2023/06/20 10:48:26;;;;;;;8.88;7.15;;;26.90;99.90;;;;;;4998439;28;20042;-91
2023/06/20 10:51:01;;;;;;;9.65;7.03;;;26.90;99.90;;;;;;4979924;28;20137;-92
2023/06/20 10:53:30;;;;;;;9.45;7.28;;;27.00;99.90;;;;;;4995295;28;20042;-91
2023/06/20 10:55:56;;;;;;;9.00;6.75;;;27.10;99.90;;;;;;4985183;28;20045;-91
2023/06/20 10:58:21;;;;;;;9.43;7.50;;;27.20;99.90;;;;;;5000954;28;20046;-91
2023/06/20 11:00:50;;;;;;;9.25;6.70;;;27.20;99.90;;;;;;5006579;28;20397;-91
2023/06/20 11:03:17;;;;;;;9.73;7.80;;;27.30;99.90;;;;;;4986178;28;20121;-91
2023/06/20 11:05:48;;;;;;;8.63;6.90;;;27.50;99.90;;;;;;4967821;28;20096;-92
2023/06/20 11:08:26;;;;;;;8.95;7.03;;;27.50;99.90;;;;;;5004730;28;20046;-92
2023/06/20 11:10:53;;;;;;;13.38;7.72;;;27.60;99.90;;;;;;4984966;28;20073;-91
2023/06/20 11:13:19;;;;;;;8.57;6.55;;;27.60;99.90;;;;;;4988369;28;20097;-92
2023/06/20 11:15:45;;;;;;;7.70;5.60;;;27.70;99.90;;;;;;4984033;28;20460;-92
2023/06/20 11:18:11;;;;;;;11.48;6.18;;;27.80;99.90;;;;;;4984371;28;20056;-92
2023/06/20 11:20:41;;;;;;;7.28;6.05;;;28.00;99.80;;;;;;4979144;28;20034;-92
2023/06/20 11:23:10;;;;;;;9.43;5.88;;;27.90;99.50;;;;;;4992080;28;20045;-90
2023/06/20 11:25:37;;;;;;;7.53;5.88;;;27.90;99.40;;;;;;4967810;28;20057;-91
2023/06/20 11:28:10;;;;;;;7.43;5.57;;;27.90;99.40;;;;;;4968691;28;20095;-91
2023/06/20 11:30:38;;;;;;;7.93;5.73;;;28.00;99.20;;;;;;4986158;28;20505;-91
2023/06/20 11:33:09;;;;;;;9.90;6.55;;;28.10;99.00;;;;;;4978655;28;20237;-90
2023/06/20 11:35:49;;;;;;;7.38;5.57;;;28.30;98.80;;;;;;4962033;28;20081;-90
2023/06/20 11:38:19;;;;;;;29.48;8.15;;;28.40;98.70;;;;;;4994697;28;20038;-91
2023/06/20 11:40:45;;;;;;;10.10;6.93;;;28.40;98.90;;;;;;4979431;28;20426;-92
2023/06/20 11:43:23;;;;;;;12.30;7.35;;;28.40;98.70;;;;;;4996335;28;20122;-92
2023/06/20 11:45:48;;;;;;;7.72;6.03;;;28.50;97.80;;;;;;4977712;28;20474;-92
2023/06/20 11:48:15;;;;;;;10.23;6.47;;;28.60;98.30;;;;;;4995212;28;20046;-91
2023/06/20 11:50:53;;;;;;;7.82;6.25;;;28.60;98.40;;;;;;4982690;28;20030;-91
2023/06/20 11:53:29;;;;;;;8.25;6.45;;;28.70;98.50;;;;;;4998789;28;20054;-91
2023/06/20 11:55:59;;;;;;;7.45;6.15;;;28.80;98.20;;;;;;4968678;28;20027;-92
2023/06/20 11:58:26;;;;;;;7.78;6.32;;;29.00;98.30;;;;;;4999949;28;20066;-91
2023/06/20 12:01:00;;;;;;;8.38;6.10;;;29.10;98.10;;;;;;4995577;28;20105;-90
2023/06/20 12:03:27;;;;;;;9.02;5.70;;;29.30;97.50;;;;;;4981148;28;20528;-90
2023/06/20 12:05:52;;;;;;;7.70;5.10;;;29.40;97.60;;;;;;4976910;28;20042;-89
2023/06/20 12:08:18;;;;;;;8.25;5.50;;;29.40;97.30;;;;;;4967149;28;20046;-88
2023/06/20 12:10:48;;;;;;;10.07;5.15;;;29.40;97.10;;;;;;4985164;28;20057;-90
2023/06/20 12:13:15;;;;;;;7.57;5.20;;;29.50;96.60;;;;;;4976971;28;20485;-92
2023/06/20 12:15:41;;;;;;;6.95;5.13;;;29.50;96.40;;;;;;4990156;28;20061;-92
2023/06/20 12:18:06;;;;;;;10.95;5.00;;;29.50;96.00;;;;;;4978708;28;20058;-92
2023/06/20 12:20:32;;;;;;;10.88;5.20;;;29.50;95.90;;;;;;4985183;28;20076;-91
2023/06/20 12:22:58;;;;;;;11.60;4.70;;;29.60;95.90;;;;;;4966840;28;20107;-92
2023/06/20 12:25:24;;;;;;;6.18;4.80;;;29.60;95.70;;;;;;4972311;28;20112;-96
2023/06/20 12:27:50;;;;;;;7.32;4.90;;;29.80;95.60;;;;;;4987123;28;20061;-96
2023/06/20 12:30:16;;;;;;;8.30;4.60;;;29.80;94.90;;;;;;4990409;28;20042;-96
2023/06/20 12:32:45;;;;;;;9.38;4.88;;;29.80;95.20;;;;;;4992006;28;20050;-90
2023/06/20 12:35:11;;;;;;;8.30;5.55;;;29.90;95.20;;;;;;4981959;28;20148;-91